createdAt,value
2019-05-14T00:01:42.218Z,102491.04
2019-05-14T00:04:14.549Z,102489.30
2019-05-14T00:06:47.110Z,102485.23
2019-05-14T00:09:21.508Z,102487.80
2019-05-14T00:11:54.018Z,102475.62
2019-05-14T00:14:38.769Z,102471.27
2019-05-14T00:17:01.745Z,102476.02
2019-05-14T00:19:36.015Z,102475.56
2019-05-14T00:22:08.665Z,102483.30
2019-05-14T00:24:41.749Z,102480.67
2019-05-14T00:27:14.895Z,102477.12
2019-05-14T00:29:47.645Z,102479.68
2019-05-14T00:32:21.652Z,102471.83
2019-05-14T00:34:54.620Z,102477.44
2019-05-14T00:37:27.150Z,102474.83
2019-05-14T00:40:01.328Z,102481.31
2019-05-14T00:42:34.185Z,102487.37
2019-05-14T00:45:08.372Z,102485.61
2019-05-14T00:47:41.761Z,102483.41
2019-05-14T00:50:15.070Z,102478.23
2019-05-14T00:52:47.815Z,102480.00
2019-05-14T00:55:22.375Z,102472.19
2019-05-14T00:57:54.940Z,102469.61
2019-05-14T01:00:31.169Z,102470.04
2019-05-14T01:03:03.280Z,102468.80
2019-05-14T01:05:36.065Z,102470.62
2019-05-14T01:08:08.827Z,102469.35
2019-05-14T01:10:41.883Z,102462.05
2019-05-14T01:13:16.795Z,102464.73
2019-05-14T01:15:51.893Z,102470.02
2019-05-14T01:18:23.685Z,102464.89
2019-05-14T01:20:57.425Z,102463.23
2019-05-14T01:23:32.064Z,102462.89
2019-05-14T01:26:04.670Z,102461.68
2019-05-14T01:28:37.481Z,102457.42
2019-05-14T01:31:11.399Z,102455.78
2019-05-14T01:33:44.641Z,102452.34
2019-05-14T01:36:17.196Z,102455.45
2019-05-14T01:38:51.318Z,102455.52
2019-05-14T01:41:24.161Z,102449.50
2019-05-14T01:43:57.220Z,102448.69
2019-05-14T01:46:31.632Z,102454.81
2019-05-14T01:49:05.086Z,102449.66
2019-05-14T01:51:38.001Z,102450.16
2019-05-14T01:54:11.947Z,102449.31
2019-05-14T01:56:44.986Z,102445.90
2019-05-14T01:59:17.771Z,102447.22
2019-05-14T02:01:51.778Z,102441.62
2019-05-14T02:04:24.670Z,102442.53
2019-05-14T02:06:57.612Z,102441.69
2019-05-14T02:09:31.093Z,102437.80
2019-05-14T02:12:03.746Z,102439.14
2019-05-14T02:14:36.436Z,102438.29
2019-05-14T02:17:09.030Z,102437.89
2019-05-14T02:19:42.746Z,102439.66
2019-05-14T02:22:15.706Z,102439.20
2019-05-14T02:24:48.385Z,102432.30
2019-05-14T02:27:21.483Z,102438.81
2019-05-14T02:29:54.161Z,102435.78
2019-05-14T02:32:29.698Z,102431.02
2019-05-14T02:35:01.113Z,102433.20
2019-05-14T02:37:34.725Z,102429.72
2019-05-14T02:40:10.168Z,102427.55
2019-05-14T02:42:43.116Z,102433.20
2019-05-14T02:45:19.522Z,102429.30
2019-05-14T02:47:50.648Z,102425.83
2019-05-14T02:50:23.425Z,102431.91
2019-05-14T02:52:59.609Z,102429.74
2019-05-14T02:55:30.712Z,102433.25
2019-05-14T02:58:03.742Z,102439.75
2019-05-14T03:00:40.436Z,102439.78
2019-05-14T03:03:10.846Z,102441.08
2019-05-14T03:05:43.365Z,102434.61
2019-05-14T03:08:19.486Z,102439.40
2019-05-14T03:10:50.845Z,102436.38
2019-05-14T03:13:25.347Z,102438.97
2019-05-14T03:15:59.416Z,102434.20
2019-05-14T03:18:32.380Z,102433.34
2019-05-14T03:21:05.001Z,102435.91
2019-05-14T03:23:39.392Z,102432.44
2019-05-14T03:26:12.103Z,102436.33
2019-05-14T03:28:44.867Z,102438.88
2019-05-14T03:31:22.343Z,102443.72
2019-05-14T03:33:53.275Z,102447.36
2019-05-14T03:36:32.399Z,102448.76
2019-05-14T03:39:00.531Z,102449.64
2019-05-14T03:41:33.501Z,102448.85
2019-05-14T03:44:09.609Z,102441.11
2019-05-14T03:46:49.473Z,102435.91
2019-05-14T03:49:15.115Z,102442.94
2019-05-14T03:51:49.757Z,102435.20
2019-05-14T03:54:22.629Z,102436.83
2019-05-14T03:56:55.333Z,102443.87
2019-05-14T03:59:29.161Z,102453.21
2019-05-14T04:02:02.074Z,102453.83
2019-05-14T04:04:35.085Z,102457.64
2019-05-14T04:07:10.248Z,102446.16
2019-05-14T04:09:44.646Z,102450.63
2019-05-14T04:12:19.198Z,102458.28
2019-05-14T04:14:55.128Z,102460.58
2019-05-14T04:17:36.736Z,102462.20
2019-05-14T04:20:04.310Z,102461.92
2019-05-14T04:22:39.257Z,102460.66
2019-05-14T04:25:13.702Z,102456.31
2019-05-14T04:27:49.466Z,102452.27
2019-05-14T04:30:24.302Z,102455.44
2019-05-14T04:32:59.577Z,102450.31
2019-05-14T04:35:32.497Z,102450.73
2019-05-14T04:38:05.337Z,102446.06
2019-05-14T04:40:40.019Z,102440.53
2019-05-14T04:43:12.660Z,102427.00
2019-05-14T04:45:45.607Z,102425.34
2019-05-14T04:48:31.188Z,102429.05
2019-05-14T04:50:53.332Z,102425.73
2019-05-14T04:53:25.890Z,102421.70
2019-05-14T04:56:00.139Z,102422.92
2019-05-14T04:58:33.186Z,102424.97
2019-05-14T05:01:09.558Z,102419.73
2019-05-14T05:03:40.476Z,102418.50
2019-05-14T05:06:13.386Z,102424.80
2019-05-14T05:08:49.435Z,102425.36
2019-05-14T05:11:21.616Z,102426.92
2019-05-14T05:13:54.806Z,102422.39
2019-05-14T05:16:29.570Z,102418.92
2019-05-14T05:19:01.811Z,102418.61
2019-05-14T05:21:34.237Z,102425.12
2019-05-14T05:24:09.022Z,102421.12
2019-05-14T05:26:41.215Z,102417.19
2019-05-14T05:29:13.850Z,102412.33
2019-05-14T05:31:48.793Z,102418.20
2019-05-14T05:34:21.085Z,102419.11
2019-05-14T05:36:53.711Z,102423.47
2019-05-14T05:39:28.207Z,102425.58
2019-05-14T05:42:00.540Z,102421.50
2019-05-14T05:44:34.323Z,102424.72
2019-05-14T05:47:09.235Z,102424.14
2019-05-14T05:49:41.419Z,102426.92
2019-05-14T05:52:14.166Z,102424.46
2019-05-14T05:54:49.051Z,102422.03
2019-05-14T05:57:21.546Z,102419.02
2019-05-14T05:59:54.100Z,102422.65
2019-05-14T06:02:28.941Z,102421.41
2019-05-14T06:05:01.080Z,102421.55
2019-05-14T06:07:34.135Z,102422.25
2019-05-14T06:10:09.086Z,102427.00
2019-05-14T06:12:41.791Z,102426.34
2019-05-14T06:15:14.533Z,102424.72
2019-05-14T06:17:49.208Z,102433.10
2019-05-14T06:20:21.680Z,102431.79
2019-05-14T06:22:54.337Z,102432.27
2019-05-14T06:25:30.875Z,102428.89
2019-05-14T06:28:01.365Z,102439.00
2019-05-14T06:30:39.849Z,102439.59
2019-05-14T06:33:13.695Z,102432.20
2019-05-14T06:35:48.602Z,102432.67
2019-05-14T06:38:21.345Z,102431.91
2019-05-14T06:40:53.947Z,102430.50
2019-05-14T06:43:28.727Z,102430.50
2019-05-14T06:46:01.270Z,102432.28
2019-05-14T06:48:34.910Z,102425.74
2019-05-14T06:51:08.863Z,102423.93
2019-05-14T06:53:41.985Z,102427.55
2019-05-14T06:56:17.888Z,102434.63
2019-05-14T06:58:49.418Z,102427.35
2019-05-14T07:01:21.951Z,102425.17
2019-05-14T07:03:54.730Z,102431.48
2019-05-14T07:06:29.103Z,102431.81
2019-05-14T07:09:01.071Z,102427.61
2019-05-14T07:11:34.471Z,102427.61
2019-05-14T07:14:11.201Z,102430.03
2019-05-14T07:16:41.021Z,102429.94
2019-05-14T07:19:15.787Z,102427.72
2019-05-14T07:21:49.141Z,102427.55
2019-05-14T07:24:22.950Z,102426.50
2019-05-14T07:26:58.345Z,102421.41
2019-05-14T07:29:29.536Z,102430.70
2019-05-14T07:32:02.071Z,102425.98
2019-05-14T07:34:34.540Z,102426.41
2019-05-14T07:37:09.359Z,102422.52
2019-05-14T07:39:41.010Z,102427.69
2019-05-14T07:42:13.535Z,102423.90
2019-05-14T07:44:48.310Z,102425.14
2019-05-14T07:47:19.890Z,102420.64
2019-05-14T07:49:52.573Z,102428.42
2019-05-14T07:52:24.932Z,102421.08
2019-05-14T07:54:58.714Z,102417.66
2019-05-14T07:57:31.231Z,102422.38
2019-05-14T08:00:05.233Z,102424.06
2019-05-14T08:02:38.073Z,102420.60
2019-05-14T08:05:10.911Z,102411.91
2019-05-14T08:07:43.270Z,102414.86
2019-05-14T08:10:19.030Z,102412.21
2019-05-14T08:12:51.391Z,102413.66
2019-05-14T08:15:23.851Z,102413.94
2019-05-14T08:17:58.582Z,102405.72
2019-05-14T08:20:31.035Z,102405.72
2019-05-14T08:23:04.878Z,102417.86
2019-05-14T08:25:39.022Z,102417.95
2019-05-14T08:28:11.653Z,102415.78
2019-05-14T08:30:44.530Z,102410.69
2019-05-14T08:33:18.601Z,102411.75
2019-05-14T08:35:51.091Z,102407.26
2019-05-14T08:38:23.712Z,102386.20
2019-05-14T08:40:58.734Z,102405.52
2019-05-14T08:43:30.371Z,102399.16
2019-05-14T08:46:02.892Z,102384.19
2019-05-14T08:48:35.352Z,102401.84
2019-05-14T08:51:09.120Z,102401.23
2019-05-14T08:53:42.870Z,102396.59
2019-05-14T08:56:18.895Z,102390.20
2019-05-14T08:58:50.551Z,102386.67
2019-05-14T09:01:25.512Z,102390.20
2019-05-14T09:03:59.538Z,102390.47
2019-05-14T09:06:31.991Z,102388.69
2019-05-14T09:09:06.091Z,102391.67
2019-05-14T09:11:44.452Z,102391.67
2019-05-14T09:14:12.332Z,102387.86
2019-05-14T09:16:49.199Z,102385.01
2019-05-14T09:19:19.401Z,102370.97
2019-05-14T09:21:52.894Z,102370.97
2019-05-14T09:24:25.232Z,102384.23
2019-05-14T09:26:59.240Z,102372.73
2019-05-14T09:29:31.931Z,102372.73
2019-05-14T09:32:04.532Z,102367.22
2019-05-14T09:34:39.208Z,102379.76
2019-05-14T09:37:11.191Z,102379.76
2019-05-14T09:39:43.731Z,102375.70
2019-05-14T09:42:19.217Z,102366.02
2019-05-14T09:44:50.271Z,102366.02
2019-05-14T09:47:22.750Z,102372.77
2019-05-14T09:49:55.411Z,102364.80
2019-05-14T09:52:29.279Z,102359.14
2019-05-14T09:55:01.871Z,102356.22
2019-05-14T09:57:34.516Z,102351.41
2019-05-14T10:00:14.307Z,102345.73
2019-05-14T10:02:45.041Z,102345.67
2019-05-14T10:05:19.471Z,102336.44
2019-05-14T10:07:51.631Z,102352.04
2019-05-14T10:10:24.112Z,102347.73
2019-05-14T10:12:58.170Z,102333.66
2019-05-14T10:15:30.771Z,102330.48
2019-05-14T10:18:03.171Z,102341.38
2019-05-14T10:20:44.447Z,102327.41
2019-05-14T10:23:09.853Z,102328.14
2019-05-14T10:25:46.731Z,102324.88
2019-05-14T10:28:19.454Z,102326.31
2019-05-14T10:30:56.450Z,102320.70
2019-05-14T10:33:30.471Z,102316.38
2019-05-14T10:36:03.291Z,102313.72
2019-05-14T10:38:35.811Z,102316.74
2019-05-14T10:41:09.047Z,102306.78
2019-05-14T10:43:42.913Z,102314.63
2019-05-14T10:46:15.671Z,102303.16
2019-05-14T10:48:48.451Z,102306.25
2019-05-14T10:51:21.091Z,102294.83
2019-05-14T10:53:53.620Z,102306.05
2019-05-14T10:56:29.484Z,102307.73
2019-05-14T10:59:01.339Z,102295.09
2019-05-14T11:01:33.803Z,102291.86
2019-05-14T11:04:06.450Z,102292.61
2019-05-14T11:06:41.832Z,102298.28
2019-05-14T11:09:14.131Z,102297.42
2019-05-14T11:11:46.754Z,102293.63
2019-05-14T11:14:19.462Z,102289.80
2019-05-14T11:16:51.730Z,102284.25
2019-05-14T11:19:28.811Z,102271.36
2019-05-14T11:22:01.331Z,102276.50
2019-05-14T11:24:33.793Z,102279.33
2019-05-14T11:27:06.392Z,102269.24
2019-05-14T11:29:39.043Z,102279.82
2019-05-14T11:32:11.455Z,102279.08
2019-05-14T11:34:43.772Z,102270.82
2019-05-14T11:37:18.552Z,102274.33
2019-05-14T11:39:50.210Z,102262.94
2019-05-14T11:42:23.972Z,102269.59
2019-05-14T11:44:58.244Z,102264.36
2019-05-14T11:47:30.692Z,102262.08
2019-05-14T11:50:03.513Z,102256.97
2019-05-14T11:52:35.892Z,102255.92
2019-05-14T11:55:11.125Z,102250.72
2019-05-14T11:57:43.460Z,102252.30
2019-05-14T12:00:19.320Z,102239.17
2019-05-14T12:02:51.953Z,102248.08
2019-05-14T12:05:24.507Z,102238.58
2019-05-14T12:07:58.330Z,102235.91
2019-05-14T12:10:30.739Z,102228.00
2019-05-14T12:13:04.371Z,102242.31
2019-05-14T12:15:38.861Z,102227.12
2019-05-14T12:18:11.190Z,102223.22
2019-05-14T12:20:43.771Z,102215.05
2019-05-14T12:23:19.217Z,102216.12
2019-05-14T12:25:51.550Z,102198.16
2019-05-14T12:28:24.011Z,102212.50
2019-05-14T12:30:58.332Z,102201.30
2019-05-14T12:33:31.779Z,102200.98
2019-05-14T12:36:04.391Z,102203.56
2019-05-14T12:38:38.269Z,102191.43
2019-05-14T12:41:10.931Z,102192.50
2019-05-14T12:43:43.887Z,102192.84
2019-05-14T12:46:16.795Z,102195.12
2019-05-14T12:48:50.692Z,102202.99
2019-05-14T12:51:23.172Z,102197.98
2019-05-14T12:53:58.106Z,102182.86
2019-05-14T12:56:29.731Z,102196.02
2019-05-14T12:59:02.122Z,102189.19
2019-05-14T13:01:34.638Z,102194.52
2019-05-14T13:04:08.487Z,102186.31
2019-05-14T13:06:43.322Z,102174.73
2019-05-14T13:09:19.140Z,102175.80
2019-05-14T13:11:49.814Z,102167.76
2019-05-14T13:14:22.190Z,102176.39
2019-05-14T13:16:54.881Z,102180.69
2019-05-14T13:19:28.463Z,102175.27
2019-05-14T13:22:13.117Z,102174.74
2019-05-14T13:24:35.171Z,102170.56
2019-05-14T13:27:09.588Z,102174.53
2019-05-14T13:29:42.132Z,102162.11
2019-05-14T13:32:14.771Z,102163.77
2019-05-14T13:34:56.101Z,102161.23
2019-05-14T13:37:28.913Z,102152.22
2019-05-14T13:40:01.371Z,102155.87
2019-05-14T13:42:38.848Z,102148.57
2019-05-14T13:45:10.810Z,102149.22
2019-05-14T13:47:43.417Z,102149.09
2019-05-14T13:50:19.432Z,102146.45
2019-05-14T13:53:03.137Z,102133.03
2019-05-14T13:55:28.043Z,102135.79
2019-05-14T13:57:59.985Z,102128.66
2019-05-14T14:00:32.753Z,102130.22
2019-05-14T14:03:09.289Z,102125.77
2019-05-14T14:05:40.851Z,102117.40
2019-05-14T14:08:13.391Z,102124.14
2019-05-14T14:10:53.059Z,102110.38
2019-05-14T14:13:22.050Z,102109.59
2019-05-14T14:15:55.610Z,102114.89
2019-05-14T14:18:29.403Z,102107.44
2019-05-14T14:21:02.380Z,102108.42
2019-05-14T14:23:39.049Z,102098.24
2019-05-14T14:26:11.990Z,102095.39
2019-05-14T14:28:44.529Z,102085.25
2019-05-14T14:31:18.949Z,102110.64
2019-05-14T14:33:52.071Z,102097.06
2019-05-14T14:36:24.721Z,102085.33
2019-05-14T14:38:58.826Z,102095.04
2019-05-14T14:41:31.034Z,102086.88
2019-05-14T14:44:03.830Z,102081.61
2019-05-14T14:46:36.530Z,102083.70
2019-05-14T14:49:10.746Z,102088.59
2019-05-14T14:51:45.151Z,102075.58
2019-05-14T14:54:17.573Z,102079.17
2019-05-14T14:56:50.253Z,102070.96
2019-05-14T14:59:23.204Z,102072.12
2019-05-14T15:01:59.399Z,102073.41
2019-05-14T15:04:29.998Z,102073.43
2019-05-14T15:07:02.864Z,102069.91
2019-05-14T15:09:35.456Z,102074.28
2019-05-14T15:12:09.081Z,102068.52
2019-05-14T15:14:41.851Z,102071.18
2019-05-14T15:17:14.648Z,102070.06
2019-05-14T15:19:49.898Z,102074.19
2019-05-14T15:22:21.911Z,102068.50
2019-05-14T15:24:54.511Z,102070.31
2019-05-14T15:27:28.261Z,102070.06
2019-05-14T15:30:00.992Z,102071.54
2019-05-14T15:32:33.593Z,102062.94
2019-05-14T15:35:11.039Z,102065.23
2019-05-14T15:37:44.037Z,102061.56
2019-05-14T15:40:22.094Z,102058.52
2019-05-14T15:42:51.777Z,102062.19
2019-05-14T15:45:24.220Z,102058.75
2019-05-14T15:48:02.927Z,102059.33
2019-05-14T15:50:32.680Z,102065.20
2019-05-14T15:53:10.841Z,102060.40
2019-05-14T15:55:40.380Z,102054.33
2019-05-14T15:58:13.119Z,102061.98
2019-05-14T16:00:45.722Z,102065.22
2019-05-14T16:03:19.466Z,102056.50
2019-05-14T16:05:52.170Z,102063.30
2019-05-14T16:08:25.052Z,102061.11
2019-05-14T16:11:00.252Z,102070.23
2019-05-14T16:13:32.735Z,102067.78
2019-05-14T16:16:05.441Z,102066.39
2019-05-14T16:18:38.634Z,102067.14
2019-05-14T16:21:11.986Z,102078.61
2019-05-14T16:23:44.692Z,102066.97
2019-05-14T16:26:18.760Z,102073.81
2019-05-14T16:28:52.067Z,102067.30
2019-05-14T16:31:24.765Z,102067.84
2019-05-14T16:33:58.861Z,102073.33
2019-05-14T16:36:32.342Z,102068.97
2019-05-14T16:39:06.581Z,102067.27
2019-05-14T16:41:39.476Z,102066.55
2019-05-14T16:44:12.241Z,102062.26
2019-05-14T16:46:44.915Z,102065.88
2019-05-14T16:49:18.554Z,102063.20
2019-05-14T16:51:51.426Z,102060.67
2019-05-14T16:54:24.800Z,102062.59
2019-05-14T16:56:57.467Z,102051.52
2019-05-14T16:59:30.250Z,102050.74
2019-05-14T17:02:02.994Z,102063.00
2019-05-14T17:04:35.981Z,102057.45
2019-05-14T17:07:09.563Z,102055.67
2019-05-14T17:09:42.672Z,102050.20
2019-05-14T17:12:15.160Z,102054.02
2019-05-14T17:14:48.446Z,102058.51
2019-05-14T17:17:21.541Z,102051.73
2019-05-14T17:19:54.480Z,102052.84
2019-05-14T17:22:32.616Z,102059.56
2019-05-14T17:25:01.717Z,102058.28
2019-05-14T17:27:35.306Z,102058.88
2019-05-14T17:30:10.206Z,102057.66
2019-05-14T17:32:42.916Z,102056.55
2019-05-14T17:35:16.101Z,102062.95
2019-05-14T17:37:48.861Z,102053.59
2019-05-14T17:40:22.089Z,102053.38
2019-05-14T17:42:54.851Z,102054.24
2019-05-14T17:45:28.479Z,102052.94
2019-05-14T17:48:01.106Z,102052.48
2019-05-14T17:50:33.801Z,102057.81
2019-05-14T17:53:06.405Z,102054.91
2019-05-14T17:55:47.145Z,102055.06
2019-05-14T17:58:13.850Z,102056.58
2019-05-14T18:00:46.921Z,102054.97
2019-05-14T18:03:19.885Z,102060.40
2019-05-14T18:05:52.686Z,102057.09
2019-05-14T18:08:25.641Z,102063.73
2019-05-14T18:11:01.095Z,102058.50
2019-05-14T18:13:32.856Z,102061.84
2019-05-14T18:16:08.787Z,102057.59
2019-05-14T18:18:41.125Z,102058.17
2019-05-14T18:21:14.065Z,102065.33
2019-05-14T18:23:48.980Z,102063.72
2019-05-14T18:26:21.623Z,102063.78
2019-05-14T18:28:54.401Z,102066.86
2019-05-14T18:31:27.300Z,102068.33
2019-05-14T18:34:00.286Z,102066.23
2019-05-14T18:36:33.235Z,102069.47
2019-05-14T18:39:09.190Z,102067.34
2019-05-14T18:41:41.562Z,102066.66
2019-05-14T18:44:14.236Z,102069.73
2019-05-14T18:46:48.661Z,102074.25
2019-05-14T18:49:21.956Z,102072.13
2019-05-14T18:51:54.657Z,102074.88
2019-05-14T18:54:29.366Z,102078.08
2019-05-14T18:57:02.901Z,102072.88
2019-05-14T18:59:35.562Z,102078.25
2019-05-14T19:02:08.688Z,102081.00
2019-05-14T19:04:41.641Z,102082.81
2019-05-14T19:07:15.682Z,102075.02
2019-05-14T19:09:49.432Z,102082.58
2019-05-14T19:12:22.667Z,102088.78
2019-05-14T19:14:54.988Z,102087.58
2019-05-14T19:17:28.423Z,102085.46
2019-05-14T19:20:02.331Z,102082.02
2019-05-14T19:22:35.351Z,102086.05
2019-05-14T19:25:09.419Z,102086.22
2019-05-14T19:27:42.085Z,102092.37
2019-05-14T19:30:15.006Z,102085.97
2019-05-14T19:32:48.486Z,102081.55
2019-05-14T19:35:21.226Z,102082.11
2019-05-14T19:37:53.891Z,102081.78
2019-05-14T19:40:28.196Z,102084.44
2019-05-14T19:43:01.186Z,102075.41
2019-05-14T19:45:34.246Z,102078.93
2019-05-14T19:48:08.151Z,102081.22
2019-05-14T19:50:41.110Z,102080.41
2019-05-14T19:53:14.020Z,102075.74
2019-05-14T19:55:48.487Z,102067.61
2019-05-14T19:58:21.781Z,102073.28
2019-05-14T20:00:54.297Z,102078.17
2019-05-14T20:03:29.142Z,102072.27
2019-05-14T20:06:01.422Z,102072.27
2019-05-14T20:08:34.126Z,102075.03
2019-05-14T20:11:06.969Z,102079.41
2019-05-14T20:13:39.635Z,102079.13
2019-05-14T20:16:12.635Z,102067.83
2019-05-14T20:18:45.180Z,102076.20
2019-05-14T20:21:17.990Z,102067.83
2019-05-14T20:23:50.658Z,102069.14
2019-05-14T20:26:23.366Z,102069.22
2019-05-14T20:28:56.217Z,102066.70
2019-05-14T20:31:29.652Z,102059.83
2019-05-14T20:34:02.815Z,102058.52
2019-05-14T20:36:35.606Z,102052.39
2019-05-14T20:39:08.769Z,102050.27
2019-05-14T20:41:41.587Z,102047.09
2019-05-14T20:44:14.751Z,102047.09
2019-05-14T20:46:48.922Z,102037.91
2019-05-14T20:49:21.825Z,102039.83
2019-05-14T20:51:54.450Z,102039.83
2019-05-14T20:54:28.956Z,102035.01
2019-05-14T20:57:01.441Z,102035.01
2019-05-14T20:59:34.190Z,102031.56
2019-05-14T21:02:08.429Z,102031.56
2019-05-14T21:04:41.255Z,102023.33
2019-05-14T21:07:14.046Z,102023.28
2019-05-14T21:09:49.123Z,102025.03
2019-05-14T21:12:21.531Z,102030.81
2019-05-14T21:14:54.430Z,102014.34
2019-05-14T21:17:28.269Z,102016.64
2019-05-14T21:20:01.179Z,102016.64
2019-05-14T21:22:33.920Z,102024.44
2019-05-14T21:25:11.387Z,102005.39
2019-05-14T21:27:48.298Z,102005.39
2019-05-14T21:30:18.928Z,102009.33
2019-05-14T21:32:51.318Z,102001.95
2019-05-14T21:35:24.580Z,101999.08
2019-05-14T21:37:59.371Z,101999.08
2019-05-14T21:40:32.274Z,102003.33
2019-05-14T21:43:05.100Z,102002.98
2019-05-14T21:45:38.299Z,101990.38
2019-05-14T21:48:11.300Z,101989.08
2019-05-14T21:50:44.980Z,101994.05
2019-05-14T21:53:19.089Z,101994.05
2019-05-14T21:55:52.025Z,101998.31
2019-05-14T21:58:24.736Z,102000.13
2019-05-14T22:00:59.272Z,101997.11
2019-05-14T22:03:32.810Z,101997.11
2019-05-14T22:06:05.866Z,101988.43
2019-05-14T22:08:39.346Z,101988.43
2019-05-14T22:11:12.180Z,101990.61
2019-05-14T22:13:44.740Z,101982.11
2019-05-14T22:16:18.971Z,101979.93
2019-05-14T22:18:51.627Z,101974.35
2019-05-14T22:21:24.160Z,101974.35
2019-05-14T22:23:58.742Z,101967.43
2019-05-14T22:26:30.795Z,101980.43
2019-05-14T22:29:03.625Z,101967.50
2019-05-14T22:31:38.510Z,101967.50
2019-05-14T22:34:10.687Z,101972.74
2019-05-14T22:36:43.520Z,101974.98
2019-05-14T22:39:19.811Z,101975.42
2019-05-14T22:41:50.661Z,101971.09
2019-05-14T22:44:23.165Z,101965.48
2019-05-14T22:46:58.629Z,101965.48
2019-05-14T22:49:30.650Z,101964.67
2019-05-14T22:52:03.686Z,101959.92
2019-05-14T22:54:38.478Z,101955.66
2019-05-14T22:57:10.810Z,101956.91
2019-05-14T22:59:43.320Z,101963.46
2019-05-14T23:02:15.995Z,101956.54
2019-05-14T23:04:49.290Z,101960.91
2019-05-14T23:07:22.281Z,101960.91
2019-05-14T23:09:54.945Z,101960.91
2019-05-14T23:12:28.726Z,101960.47
2019-05-14T23:15:01.381Z,101947.03
2019-05-14T23:17:34.225Z,101952.27
2019-05-14T23:20:09.165Z,101950.54
2019-05-14T23:22:42.351Z,101943.54
2019-05-14T23:25:15.141Z,101945.30
2019-05-14T23:27:48.352Z,101942.30
2019-05-14T23:30:33.695Z,101942.30
2019-05-14T23:33:06.290Z,101932.30
2019-05-14T23:35:39.356Z,101938.92
2019-05-14T23:38:12.236Z,101931.98
2019-05-14T23:40:45.005Z,101925.50
2019-05-14T23:43:18.558Z,101914.47
2019-05-14T23:45:51.330Z,101914.47
2019-05-14T23:48:24.076Z,101914.41
2019-05-14T23:50:58.439Z,101915.30
2019-05-14T23:53:31.231Z,101913.14
2019-05-14T23:56:03.771Z,101911.94
2019-05-14T23:58:36.485Z,101902.94
